createdAt,value
2023-11-01T05:01:37.808Z,83.91
2023-11-01T05:04:04.709Z,83.84
2023-11-01T05:06:35.654Z,83.78
2023-11-01T05:09:02.257Z,83.63
2023-11-01T05:11:31.188Z,83.57
2023-11-01T05:13:57.766Z,83.57
2023-11-01T05:16:26.503Z,83.45
2023-11-01T05:19:11.548Z,83.50
2023-11-01T05:21:43.482Z,83.59
2023-11-01T05:24:12.120Z,83.44
2023-11-01T05:26:40.682Z,83.34
2023-11-01T05:29:17.744Z,83.34
2023-11-01T05:32:04.111Z,83.24
2023-11-01T05:34:32.262Z,83.26
2023-11-01T05:37:00.196Z,83.27
2023-11-01T05:39:28.877Z,83.19
2023-11-01T05:41:59.137Z,83.21
2023-11-01T05:44:27.293Z,83.23
2023-11-01T05:47:35.379Z,83.30
2023-11-01T05:50:53.121Z,83.31
2023-11-01T05:53:21.228Z,83.33
2023-11-01T05:56:01.276Z,83.37
2023-11-01T05:58:36.319Z,83.47
2023-11-01T06:01:27.704Z,83.40
2023-11-01T06:04:02.053Z,83.43
2023-11-01T06:06:30.393Z,83.52
2023-11-01T06:09:01.482Z,83.58
2023-11-01T06:11:33.806Z,83.55
2023-11-01T06:14:01.814Z,83.53
2023-11-01T06:16:30.651Z,83.45
2023-11-01T06:18:58.726Z,83.42
2023-11-01T06:21:30.302Z,83.35
2023-11-01T06:23:59.292Z,83.37
2023-11-01T06:26:27.543Z,83.30
2023-11-01T06:28:55.655Z,83.23
2023-11-01T06:31:24.987Z,83.21
2023-11-01T06:33:53.200Z,83.20
2023-11-01T06:36:21.573Z,83.16
2023-11-01T06:38:49.512Z,83.07
2023-11-01T06:41:41.451Z,82.96
2023-11-01T06:44:14.603Z,82.89
2023-11-01T06:46:43.477Z,82.84
2023-11-01T06:49:17.393Z,82.78
2023-11-01T06:51:46.042Z,82.70
2023-11-01T06:54:32.141Z,82.63
2023-11-01T06:57:00.176Z,82.57
2023-11-01T06:59:28.202Z,82.55
2023-11-01T07:01:58.307Z,82.49
2023-11-01T07:04:46.650Z,82.41
2023-11-01T07:07:26.215Z,82.30
2023-11-01T07:09:54.406Z,82.20
2023-11-01T07:12:23.245Z,82.05
2023-11-01T07:14:51.253Z,81.95
2023-11-01T07:17:30.890Z,81.84
2023-11-01T07:19:58.979Z,81.74
2023-11-01T07:22:29.261Z,81.69
2023-11-01T07:25:00.227Z,81.59
2023-11-01T07:27:28.290Z,81.52
2023-11-01T07:30:06.106Z,81.45
2023-11-01T07:32:34.080Z,81.37
2023-11-01T07:35:03.761Z,81.30
2023-11-01T07:37:33.386Z,81.18
2023-11-01T07:40:01.484Z,81.13
2023-11-01T07:42:36.665Z,81.07
2023-11-01T07:45:05.371Z,80.99
2023-11-01T07:47:33.544Z,81.02
2023-11-01T07:50:01.670Z,80.90
2023-11-01T07:52:30.058Z,80.91
2023-11-01T07:55:03.757Z,80.83
2023-11-01T07:57:50.192Z,80.76
2023-11-01T08:00:21.440Z,80.63
2023-11-01T08:02:51.726Z,80.58
2023-11-01T08:05:22.248Z,80.50
2023-11-01T08:07:51.184Z,80.33
2023-11-01T08:13:00.110Z,80.00
2023-11-01T08:15:29.557Z,79.98
2023-11-01T08:17:57.916Z,79.79
2023-11-01T08:20:34.349Z,79.56
2023-11-01T08:23:02.453Z,79.42
2023-11-01T08:25:32.952Z,79.45
2023-11-01T08:28:01.003Z,79.36
2023-11-01T08:30:29.139Z,79.30
2023-11-01T08:32:57.977Z,79.12
2023-11-01T08:35:31.474Z,78.92
2023-11-01T08:38:01.681Z,78.82
2023-11-01T08:40:32.317Z,78.85
2023-11-01T08:43:00.578Z,78.72
2023-11-01T08:45:28.736Z,78.44
2023-11-01T08:47:56.952Z,78.37
2023-11-01T08:50:39.372Z,78.17
2023-11-01T08:53:07.383Z,77.93
2023-11-01T08:56:22.566Z,78.07
2023-11-01T08:58:53.052Z,77.91
2023-11-01T09:01:21.192Z,77.51
2023-11-01T09:03:51.734Z,76.90
2023-11-01T09:06:21.111Z,76.52
2023-11-01T09:08:49.455Z,76.42
2023-11-01T09:11:17.592Z,76.20
2023-11-01T09:13:45.533Z,76.08
2023-11-01T09:16:13.518Z,76.00
2023-11-01T09:18:43.251Z,75.90
2023-11-01T09:21:11.234Z,75.69
2023-11-01T09:23:39.230Z,75.77
2023-11-01T09:26:10.733Z,75.61
2023-11-01T09:28:40.713Z,75.17
2023-11-01T09:31:08.907Z,74.88
2023-11-01T09:33:37.000Z,74.67
2023-11-01T09:36:11.869Z,74.21
2023-11-01T09:38:39.956Z,74.16
2023-11-01T09:41:36.966Z,74.00
2023-11-01T09:44:30.076Z,73.70
2023-11-01T09:47:00.424Z,73.48
2023-11-01T09:49:31.004Z,73.74
2023-11-01T09:52:00.796Z,73.96
2023-11-01T09:55:06.047Z,73.91
2023-11-01T09:57:44.369Z,73.53
2023-11-01T10:00:18.777Z,73.38
2023-11-01T10:03:19.103Z,73.42
2023-11-01T10:05:50.462Z,73.18
2023-11-01T10:08:25.556Z,72.70
2023-11-01T10:10:57.088Z,72.96
2023-11-01T10:13:33.238Z,72.62
2023-11-01T10:16:04.020Z,72.12
2023-11-01T10:19:05.759Z,72.17
2023-11-01T10:21:59.688Z,72.05
2023-11-01T10:24:32.959Z,72.30
2023-11-01T10:27:30.851Z,72.18
2023-11-01T11:03:53.366Z,71.20
2023-11-01T11:06:29.631Z,70.96
2023-11-01T11:09:33.350Z,69.46
2023-11-01T11:12:35.385Z,69.11
2023-11-01T11:15:11.903Z,68.86
2023-11-01T11:18:08.916Z,67.62
2023-11-01T11:20:41.209Z,67.97
2023-11-01T11:23:18.840Z,67.93
2023-11-01T11:25:51.638Z,67.99
2023-11-01T11:28:24.748Z,67.80
2023-11-01T11:31:04.159Z,67.55
2023-11-01T11:34:12.468Z,67.94
2023-11-01T11:37:17.624Z,68.36
2023-11-01T11:40:01.115Z,68.20
2023-11-01T11:42:43.055Z,68.65
2023-11-01T11:45:28.998Z,68.67
2023-11-01T11:48:40.084Z,68.86
2023-11-01T11:51:09.479Z,69.12
2023-11-01T11:53:58.437Z,69.33
2023-11-01T11:57:20.735Z,69.56
2023-11-01T12:07:09.017Z,70.17
2023-11-01T12:11:23.798Z,70.14
2023-11-01T12:13:15.201Z,70.08
2023-11-01T12:15:56.116Z,70.32
2023-11-01T12:18:28.823Z,70.30
2023-11-01T12:20:56.810Z,70.27
2023-11-01T12:23:35.316Z,70.34
2023-11-01T12:26:12.836Z,70.33
2023-11-01T12:28:49.936Z,70.26
2023-11-01T12:31:17.852Z,70.52
2023-11-01T12:33:45.974Z,70.42
2023-11-01T12:36:29.889Z,70.53
2023-11-01T12:39:18.293Z,70.63
2023-11-01T12:41:48.473Z,70.58
2023-11-01T12:44:17.948Z,70.24
2023-11-01T12:46:45.972Z,70.06
2023-11-01T12:49:14.013Z,69.98
2023-11-01T12:51:41.846Z,70.00
2023-11-01T12:54:09.750Z,70.10
2023-11-01T12:56:40.785Z,70.01
2023-11-01T12:59:11.443Z,69.95
2023-11-01T13:01:39.457Z,70.07
2023-11-01T13:04:11.307Z,69.95
2023-11-01T13:06:39.694Z,69.87
2023-11-01T13:09:15.749Z,69.90
2023-11-01T13:11:44.230Z,70.03
2023-11-01T13:14:12.303Z,70.05
